createdAt,value
2022-08-09T00:01:43.157Z,28.00
2022-08-09T00:04:34.120Z,28.00
2022-08-09T00:07:07.824Z,28.00
2022-08-09T00:09:38.232Z,28.00
2022-08-09T00:12:05.676Z,28.00
2022-08-09T00:14:38.204Z,28.00
2022-08-09T00:17:06.913Z,28.00
2022-08-09T00:19:34.195Z,28.00
2022-08-09T00:22:03.497Z,28.00
2022-08-09T00:24:32.070Z,27.90
2022-08-09T00:27:00.551Z,28.00
2022-08-09T00:30:16.244Z,27.90
2022-08-09T00:32:26.871Z,27.90
2022-08-09T00:34:54.997Z,27.90
2022-08-09T00:37:21.918Z,28.00
2022-08-09T00:40:12.498Z,28.00
2022-08-09T00:44:13.222Z,28.00
2022-08-09T00:45:24.949Z,27.90
2022-08-09T00:47:52.555Z,27.90
2022-08-09T00:50:23.028Z,27.80
2022-08-09T00:52:50.672Z,27.80
2022-08-09T00:55:54.245Z,27.90
2022-08-09T00:58:05.958Z,27.80
2022-08-09T01:00:39.940Z,27.70
2022-08-09T01:03:20.124Z,27.80
2022-08-09T01:05:59.344Z,27.70
2022-08-09T01:08:51.492Z,27.70
2022-08-09T01:11:53.149Z,27.70
2022-08-09T01:14:52.411Z,27.60
2022-08-09T01:17:44.056Z,27.60
2022-08-09T01:20:35.757Z,27.60
2022-08-09T01:24:02.009Z,27.50
2022-08-09T01:26:27.919Z,27.50
2022-08-09T01:28:57.080Z,27.50
2022-08-09T01:32:30.217Z,27.50
2022-08-09T01:34:19.929Z,27.40
2022-08-09T01:36:49.618Z,27.40
2022-08-09T01:39:17.760Z,27.40
2022-08-09T01:41:53.395Z,27.40
2022-08-09T01:44:22.652Z,27.40
2022-08-09T01:46:52.981Z,27.40
2022-08-09T01:49:24.182Z,27.30
2022-08-09T01:51:55.494Z,27.30
2022-08-09T01:54:32.781Z,27.30
2022-08-09T01:57:04.798Z,27.30
2022-08-09T01:59:33.339Z,27.30
2022-08-09T02:02:19.512Z,27.30
2022-08-09T02:04:50.927Z,27.30
2022-08-09T02:08:41.253Z,27.30
2022-08-09T02:10:12.374Z,27.20
2022-08-09T02:12:40.454Z,27.20
2022-08-09T02:15:11.799Z,27.20
2022-08-09T02:18:00.321Z,27.20
2022-08-09T02:20:43.688Z,27.20
2022-08-09T02:23:17.903Z,27.20
2022-08-09T02:25:52.480Z,27.20
2022-08-09T02:28:48.216Z,27.10
2022-08-09T02:31:27.426Z,27.10
2022-08-09T02:34:12.982Z,27.10
2022-08-09T02:36:42.419Z,27.10
2022-08-09T02:39:19.947Z,27.10
2022-08-09T02:42:05.726Z,27.20
2022-08-09T02:44:40.361Z,27.20
2022-08-09T02:47:12.388Z,27.20
2022-08-09T02:49:46.101Z,27.10
2022-08-09T02:52:26.016Z,27.10
2022-08-09T02:54:58.454Z,27.10
2022-08-09T02:57:40.444Z,27.10
2022-08-09T03:00:24.802Z,27.10
2022-08-09T03:02:59.967Z,27.00
2022-08-09T03:05:29.170Z,27.00
2022-08-09T03:07:57.694Z,27.10
2022-08-09T03:10:26.228Z,27.10
2022-08-09T03:12:54.622Z,27.10
2022-08-09T03:15:23.461Z,27.10
2022-08-09T03:17:57.846Z,27.10
2022-08-09T03:20:29.753Z,27.10
2022-08-09T03:23:10.525Z,27.20
2022-08-09T03:25:57.917Z,27.10
2022-08-09T03:28:27.154Z,27.10
2022-08-09T03:30:55.657Z,27.20
2022-08-09T03:33:24.221Z,27.20
2022-08-09T03:36:13.845Z,27.20
2022-08-09T03:38:43.064Z,27.20
2022-08-09T03:41:15.593Z,27.10
2022-08-09T03:44:03.472Z,27.10
2022-08-09T03:46:34.165Z,27.00
2022-08-09T03:49:08.941Z,27.00
2022-08-09T03:51:56.365Z,26.90
2022-08-09T03:54:32.111Z,26.90
2022-08-09T03:57:18.530Z,26.80
2022-08-09T03:59:55.360Z,26.70
2022-08-09T04:02:26.455Z,26.60
2022-08-09T04:04:56.779Z,26.50
2022-08-09T04:07:47.140Z,26.50
2022-08-09T04:10:14.464Z,26.50
2022-08-09T04:12:49.805Z,26.50
2022-08-09T04:15:39.140Z,26.60
2022-08-09T04:18:06.339Z,26.50
2022-08-09T04:20:33.759Z,26.50
2022-08-09T04:23:01.909Z,26.50
2022-08-09T04:25:29.381Z,26.50
2022-08-09T04:27:59.911Z,26.50
2022-08-09T04:30:29.720Z,26.50
2022-08-09T04:32:57.144Z,26.40
2022-08-09T04:35:24.039Z,26.50
2022-08-09T04:37:50.909Z,26.70
2022-08-09T04:40:19.383Z,26.80
2022-08-09T04:42:56.762Z,26.80
2022-08-09T04:45:23.982Z,26.80
2022-08-09T04:48:00.286Z,26.70
2022-08-09T04:50:35.109Z,26.70
2022-08-09T04:53:11.522Z,26.90
2022-08-09T04:55:51.452Z,27.00
2022-08-09T04:58:29.824Z,27.00
2022-08-09T05:00:59.613Z,26.90
2022-08-09T05:03:40.169Z,26.90
2022-08-09T05:06:26.707Z,27.00
2022-08-09T05:09:00.356Z,27.00
2022-08-09T05:11:30.458Z,27.10
2022-08-09T05:13:59.656Z,27.00
2022-08-09T05:16:28.618Z,27.10
2022-08-09T05:19:00.165Z,27.20
2022-08-09T05:21:30.527Z,27.20
2022-08-09T05:24:04.842Z,27.20
2022-08-09T05:26:36.348Z,27.20
2022-08-09T05:29:21.705Z,27.10
2022-08-09T05:31:57.711Z,27.30
2022-08-09T05:34:31.731Z,27.70
2022-08-09T05:37:06.429Z,28.20
2022-08-09T05:39:43.128Z,28.60
2022-08-09T05:42:20.508Z,29.00
2022-08-09T05:44:54.004Z,29.30
2022-08-09T05:47:22.648Z,29.60
2022-08-09T05:50:26.088Z,29.70
2022-08-09T05:52:39.649Z,29.70
2022-08-09T05:55:08.802Z,29.90
2022-08-09T05:57:51.329Z,30.00
2022-08-09T06:00:23.938Z,30.10
2022-08-09T06:02:54.164Z,30.30
2022-08-09T06:05:50.336Z,30.40
2022-08-09T06:08:09.158Z,30.40
2022-08-09T06:10:37.899Z,30.60
2022-08-09T06:13:18.795Z,30.80
2022-08-09T06:15:51.271Z,30.90
2022-08-09T06:18:24.868Z,31.10
2022-08-09T06:20:57.870Z,31.10
2022-08-09T06:23:58.750Z,31.30
2022-08-09T06:26:21.113Z,31.40
2022-08-09T06:28:59.565Z,31.40
2022-08-09T06:31:31.016Z,31.40
2022-08-09T06:34:06.503Z,31.30
2022-08-09T06:36:34.371Z,31.20
2022-08-09T06:39:02.523Z,31.20
2022-08-09T06:41:55.844Z,31.10
2022-08-09T06:44:24.948Z,31.00
2022-08-09T06:46:55.439Z,30.90
2022-08-09T06:49:44.558Z,30.90
2022-08-09T06:52:11.994Z,30.90
2022-08-09T06:54:39.207Z,30.90
2022-08-09T06:57:08.839Z,30.90
2022-08-09T07:00:54.636Z,30.90
2022-08-09T07:02:30.897Z,30.90
2022-08-09T07:04:59.866Z,30.80
2022-08-09T07:07:58.950Z,30.90
2022-08-09T07:10:29.974Z,31.00
2022-08-09T07:12:59.801Z,31.00
2022-08-09T07:16:35.324Z,30.90
2022-08-09T07:18:14.941Z,30.90
2022-08-09T07:20:43.652Z,31.00
2022-08-09T07:23:18.114Z,30.90
2022-08-09T07:25:46.839Z,30.90
2022-08-09T07:28:19.232Z,31.00
2022-08-09T07:30:54.094Z,31.10
2022-08-09T07:33:22.264Z,31.10
2022-08-09T07:35:53.582Z,31.20
2022-08-09T07:38:23.370Z,31.20
2022-08-09T07:41:00.616Z,31.10
2022-08-09T07:43:49.521Z,31.00
2022-08-09T07:46:23.080Z,31.10
2022-08-09T07:49:00.205Z,31.10
2022-08-09T07:52:04.467Z,31.20
2022-08-09T07:54:15.432Z,31.20
2022-08-09T07:56:49.198Z,31.20
2022-08-09T07:59:34.682Z,31.20
2022-08-09T08:02:06.729Z,31.20
2022-08-09T08:04:36.606Z,31.30
2022-08-09T08:07:27.032Z,31.30
2022-08-09T08:10:07.535Z,31.40
2022-08-09T08:12:43.184Z,31.40
2022-08-09T08:15:13.825Z,31.50
2022-08-09T08:17:53.211Z,31.50
2022-08-09T08:20:29.402Z,31.50
2022-08-09T08:23:03.565Z,31.40
2022-08-09T08:25:46.497Z,31.50
2022-08-09T08:28:18.365Z,31.50
2022-08-09T08:30:53.655Z,31.50
2022-08-09T08:33:23.821Z,31.50
2022-08-09T08:35:58.331Z,31.40
2022-08-09T08:38:26.099Z,31.40
2022-08-09T08:40:56.654Z,31.30
2022-08-09T08:43:24.416Z,31.10
2022-08-09T08:46:31.528Z,31.00
2022-08-09T08:48:53.335Z,30.90
2022-08-09T08:51:22.974Z,30.80
2022-08-09T08:54:03.304Z,30.90
2022-08-09T08:56:35.406Z,31.00
2022-08-09T08:59:07.698Z,31.00
2022-08-09T09:01:52.931Z,31.00
2022-08-09T09:04:37.764Z,31.10
2022-08-09T09:07:15.872Z,31.10
2022-08-09T09:10:01.740Z,31.20
2022-08-09T09:12:35.476Z,31.00
2022-08-09T09:15:05.179Z,31.00
2022-08-09T09:17:48.103Z,31.10
2022-08-09T09:20:17.313Z,31.00
2022-08-09T09:23:01.821Z,31.00
2022-08-09T09:26:01.042Z,31.00
2022-08-09T09:29:02.066Z,31.10
2022-08-09T09:32:03.948Z,31.20
2022-08-09T09:34:18.124Z,31.30
2022-08-09T09:36:53.112Z,31.40
2022-08-09T09:39:55.197Z,31.30
2022-08-09T09:42:25.455Z,31.30
2022-08-09T09:45:14.483Z,31.30
2022-08-09T09:47:58.507Z,31.30
2022-08-09T09:50:49.727Z,31.20
2022-08-09T09:53:57.190Z,31.20
2022-08-09T09:56:30.976Z,31.20
2022-08-09T09:59:00.248Z,31.30
2022-08-09T10:01:36.935Z,31.30
2022-08-09T10:04:16.186Z,31.30
2022-08-09T10:06:52.003Z,31.30
2022-08-09T10:09:22.774Z,31.40
2022-08-09T10:12:12.103Z,31.50
2022-08-09T10:14:49.927Z,31.40
2022-08-09T10:17:51.254Z,31.30
2022-08-09T10:20:27.483Z,31.40
2022-08-09T10:23:13.424Z,31.50
2022-08-09T10:26:07.916Z,31.60
2022-08-09T10:28:33.163Z,31.60
2022-08-09T10:34:08.796Z,31.70
2022-08-09T10:36:35.940Z,31.70
2022-08-09T10:39:03.328Z,31.70
2022-08-09T10:41:42.137Z,31.80
2022-08-09T10:44:10.493Z,31.80
2022-08-09T10:47:20.448Z,31.80
2022-08-09T10:50:15.720Z,31.70
2022-08-09T10:52:54.716Z,31.60
2022-08-09T10:55:28.907Z,31.60
2022-08-09T10:58:33.676Z,31.70
2022-08-09T11:03:02.461Z,31.80
2022-08-09T11:04:30.984Z,31.80
2022-08-09T11:06:59.788Z,31.80
2022-08-09T11:09:41.290Z,31.80
2022-08-09T11:12:17.307Z,31.60
2022-08-09T11:14:51.293Z,31.60
2022-08-09T11:17:19.300Z,31.80
2022-08-09T11:20:20.299Z,31.80
2022-08-09T11:22:56.668Z,31.80
2022-08-09T11:25:36.339Z,31.90
2022-08-09T11:28:54.321Z,32.00
2022-08-09T11:31:43.506Z,32.00
2022-08-09T11:34:31.756Z,31.90
2022-08-09T11:37:00.201Z,31.90
2022-08-09T11:39:33.436Z,32.00
2022-08-09T11:42:08.762Z,31.90
2022-08-09T11:44:46.267Z,31.90
2022-08-09T11:47:14.640Z,32.00
2022-08-09T11:50:56.581Z,32.00
2022-08-09T11:53:21.152Z,32.00
2022-08-09T11:56:02.440Z,32.00
2022-08-09T11:58:32.417Z,32.00
2022-08-09T12:01:03.577Z,32.00
2022-08-09T12:03:55.063Z,32.10
2022-08-09T12:06:32.354Z,31.90
2022-08-09T12:09:05.744Z,31.80
2022-08-09T12:11:44.604Z,31.80
2022-08-09T12:14:40.510Z,32.00
2022-08-09T12:17:28.328Z,32.00
2022-08-09T12:20:22.417Z,31.90
2022-08-09T12:22:55.712Z,32.00
2022-08-09T12:25:36.180Z,32.00
2022-08-09T12:29:12.073Z,32.00
2022-08-09T12:30:59.877Z,32.00
2022-08-09T12:33:51.504Z,32.00
2022-08-09T12:36:15.501Z,32.10
2022-08-09T12:38:58.549Z,32.10
2022-08-09T12:41:36.291Z,32.10
2022-08-09T12:44:09.892Z,32.20
2022-08-09T12:46:49.302Z,32.20
2022-08-09T12:49:17.413Z,32.30
2022-08-09T12:52:02.722Z,32.40
2022-08-09T12:55:03.134Z,32.40
2022-08-09T12:57:42.764Z,32.50
2022-08-09T13:00:25.395Z,32.50
2022-08-09T13:02:55.253Z,32.50
2022-08-09T13:05:25.303Z,32.50
2022-08-09T13:08:16.072Z,32.60
2022-08-09T13:10:52.291Z,32.60
2022-08-09T13:14:36.722Z,32.60
2022-08-09T13:16:19.524Z,32.70
2022-08-09T13:18:49.608Z,32.70
2022-08-09T13:22:35.899Z,32.80
2022-08-09T13:24:44.855Z,32.70
2022-08-09T13:27:00.595Z,32.70
2022-08-09T13:30:02.577Z,32.60
2022-08-09T13:32:26.667Z,32.60
2022-08-09T13:34:55.660Z,32.70
2022-08-09T13:37:48.970Z,32.70
2022-08-09T13:41:55.004Z,32.70
2022-08-09T13:42:57.933Z,32.70
2022-08-09T13:45:32.322Z,32.70
2022-08-09T13:48:11.866Z,32.80
2022-08-09T13:50:42.160Z,32.80
2022-08-09T13:53:10.393Z,32.80
2022-08-09T13:55:37.880Z,32.90
2022-08-09T13:58:05.279Z,32.80
2022-08-09T14:00:49.830Z,32.90
2022-08-09T14:04:01.083Z,32.90
2022-08-09T14:06:14.608Z,33.00
2022-08-09T14:08:46.841Z,33.00
2022-08-09T14:11:16.083Z,33.00
2022-08-09T14:14:24.965Z,33.10
2022-08-09T14:16:30.227Z,33.00
2022-08-09T14:18:58.381Z,33.00
2022-08-09T14:21:29.203Z,33.10
2022-08-09T14:23:57.672Z,33.10
2022-08-09T14:26:32.238Z,33.10
2022-08-09T14:29:02.207Z,33.20
2022-08-09T14:31:36.207Z,33.20
2022-08-09T14:34:17.701Z,33.20
2022-08-09T14:36:57.630Z,33.20
2022-08-09T14:39:47.491Z,33.20
2022-08-09T14:42:13.065Z,33.20
2022-08-09T14:44:59.811Z,33.30
2022-08-09T14:47:45.441Z,33.30
2022-08-09T14:50:16.076Z,33.30
2022-08-09T14:52:43.541Z,33.30
2022-08-09T14:55:20.024Z,33.30
2022-08-09T14:57:48.740Z,33.30
2022-08-09T15:00:16.365Z,33.30
2022-08-09T15:02:47.437Z,33.30
2022-08-09T15:05:18.906Z,33.30
2022-08-09T15:07:56.023Z,33.30
2022-08-09T15:10:25.564Z,33.20
2022-08-09T15:12:57.230Z,33.30
2022-08-09T15:15:28.550Z,33.30
2022-08-09T15:17:55.994Z,33.30
2022-08-09T15:21:54.743Z,33.20
2022-08-09T15:24:01.743Z,33.20
2022-08-09T15:25:58.555Z,33.30
2022-08-09T15:28:27.707Z,33.30
2022-08-09T15:31:08.804Z,33.30
2022-08-09T15:34:32.999Z,33.30
2022-08-09T15:36:28.846Z,33.30
2022-08-09T15:38:57.568Z,33.40
2022-08-09T15:41:31.743Z,33.30
2022-08-09T15:44:03.657Z,33.30
2022-08-09T15:46:33.429Z,33.30
2022-08-09T15:49:23.102Z,33.30
2022-08-09T15:52:04.863Z,33.20
2022-08-09T15:54:44.570Z,33.20
2022-08-09T15:57:13.754Z,33.20
2022-08-09T15:59:42.883Z,33.10
2022-08-09T16:02:15.391Z,33.10
2022-08-09T16:04:42.665Z,33.10
2022-08-09T16:07:10.528Z,33.10
2022-08-09T16:09:57.627Z,33.10
2022-08-09T16:12:26.246Z,33.00
2022-08-09T16:14:57.867Z,33.00
2022-08-09T16:17:28.772Z,33.00
2022-08-09T16:20:04.790Z,33.00
2022-08-09T16:22:42.140Z,33.00
2022-08-09T16:25:13.716Z,33.00
2022-08-09T16:27:42.816Z,33.10
2022-08-09T16:30:19.151Z,33.00
2022-08-09T16:33:10.580Z,33.10
2022-08-09T16:35:57.052Z,33.00
2022-08-09T16:38:26.730Z,33.00
2022-08-09T16:40:53.628Z,33.00
2022-08-09T16:43:22.422Z,33.00
2022-08-09T16:45:53.522Z,32.90
2022-08-09T16:48:39.725Z,32.80
2022-08-09T16:51:14.076Z,32.80
2022-08-09T16:54:25.669Z,32.80
2022-08-09T16:56:33.725Z,32.80
2022-08-09T16:59:06.792Z,32.70
2022-08-09T17:01:38.864Z,32.60
2022-08-09T17:04:06.767Z,32.60
2022-08-09T17:07:03.979Z,32.60
2022-08-09T17:09:45.477Z,32.60
2022-08-09T17:12:08.432Z,32.60
2022-08-09T17:14:35.464Z,32.50
2022-08-09T17:17:04.016Z,32.50
2022-08-09T17:20:28.915Z,32.50
2022-08-09T17:22:39.094Z,32.50
2022-08-09T17:25:17.523Z,32.50
2022-08-09T17:27:49.387Z,32.40
2022-08-09T17:30:26.535Z,32.40
2022-08-09T17:33:01.373Z,32.40
2022-08-09T17:35:35.056Z,32.40
2022-08-09T17:38:12.948Z,32.30
2022-08-09T17:40:49.575Z,32.20
2022-08-09T17:43:33.539Z,32.20
2022-08-09T17:46:06.979Z,32.20
2022-08-09T17:48:38.564Z,32.20
2022-08-09T17:51:18.514Z,32.10
2022-08-09T17:53:53.481Z,32.10
2022-08-09T17:56:27.717Z,31.90
2022-08-09T17:59:03.003Z,31.90
2022-08-09T18:01:40.703Z,32.00
2022-08-09T18:04:19.604Z,31.90
2022-08-09T18:06:49.644Z,31.80
2022-08-09T18:09:21.704Z,31.90
2022-08-09T18:12:14.557Z,31.80
2022-08-09T18:14:37.229Z,31.80
2022-08-09T18:17:18.553Z,31.70
2022-08-09T18:20:54.656Z,31.70
2022-08-09T18:22:40.757Z,31.70
2022-08-09T18:25:18.017Z,31.60
2022-08-09T18:28:02.915Z,31.60
2022-08-09T18:30:38.745Z,31.50
2022-08-09T18:33:15.331Z,31.40
2022-08-09T18:35:58.988Z,31.40
2022-08-09T18:38:27.484Z,31.40
2022-08-09T18:40:55.537Z,31.20
2022-08-09T18:43:23.505Z,31.00
2022-08-09T18:46:46.722Z,30.80
2022-08-09T18:48:37.769Z,30.50
2022-08-09T18:51:04.788Z,30.30
2022-08-09T18:53:56.433Z,30.20
2022-08-09T18:56:27.062Z,30.30
2022-08-09T18:58:56.539Z,30.30
2022-08-09T19:01:24.525Z,30.10
2022-08-09T19:04:01.446Z,30.10
2022-08-09T19:06:34.475Z,30.10
2022-08-09T19:09:04.777Z,30.00
2022-08-09T19:11:37.586Z,29.90
2022-08-09T19:14:06.822Z,29.70
2022-08-09T19:16:36.445Z,29.60
2022-08-09T19:19:19.301Z,29.70
2022-08-09T19:22:05.000Z,29.70
2022-08-09T19:25:07.545Z,29.60
2022-08-09T19:27:22.327Z,29.50
2022-08-09T19:30:22.567Z,29.30
2022-08-09T19:32:36.973Z,29.10
2022-08-09T19:35:04.548Z,29.20
2022-08-09T19:37:41.063Z,29.30
2022-08-09T19:40:19.035Z,29.40
2022-08-09T19:42:47.537Z,29.40
2022-08-09T19:45:17.223Z,29.10
2022-08-09T19:47:45.629Z,29.20
2022-08-09T19:50:50.273Z,29.20
2022-08-09T19:53:04.284Z,29.30
2022-08-09T19:56:02.087Z,29.30
2022-08-09T19:58:30.190Z,29.10
2022-08-09T20:00:57.751Z,28.90
2022-08-09T20:04:17.151Z,28.90
2022-08-09T20:06:23.998Z,28.80
2022-08-09T20:08:57.616Z,28.70
2022-08-09T20:11:42.924Z,28.70
2022-08-09T20:14:15.328Z,28.60
2022-08-09T20:16:50.182Z,28.50
2022-08-09T20:19:48.352Z,28.50
2022-08-09T20:22:10.212Z,28.60
2022-08-09T20:24:41.621Z,28.50
2022-08-09T20:27:08.901Z,28.40
2022-08-09T20:29:39.504Z,28.40
2022-08-09T20:32:29.221Z,28.30
2022-08-09T20:34:55.430Z,28.40
2022-08-09T20:37:22.833Z,28.20
2022-08-09T20:40:17.160Z,28.10
2022-08-09T20:42:37.744Z,28.00
2022-08-09T20:46:01.614Z,27.90
2022-08-09T20:47:54.287Z,27.70
2022-08-09T20:50:48.542Z,27.70
2022-08-09T20:53:21.016Z,27.80
2022-08-09T20:56:00.711Z,27.80
2022-08-09T20:58:32.809Z,27.80
2022-08-09T21:01:32.554Z,27.90
2022-08-09T21:04:08.145Z,27.90
2022-08-09T21:06:41.280Z,27.80
2022-08-09T21:09:14.181Z,27.70
2022-08-09T21:14:31.827Z,27.70
2022-08-09T21:16:59.539Z,27.60
2022-08-09T21:20:19.819Z,27.60
2022-08-09T21:22:35.995Z,27.70
2022-08-09T21:25:20.826Z,27.80
2022-08-09T21:28:00.969Z,27.90
2022-08-09T21:30:27.925Z,28.00
2022-08-09T21:32:54.864Z,27.80
2022-08-09T21:35:24.124Z,27.40
2022-08-09T21:37:59.357Z,27.30
2022-08-09T21:40:30.650Z,27.30
2022-08-09T21:45:44.790Z,27.30
2022-08-09T21:48:12.020Z,27.30
2022-08-09T21:50:43.457Z,27.30
2022-08-09T21:53:39.919Z,27.20
2022-08-09T21:56:03.916Z,26.90
2022-08-09T21:58:32.332Z,26.70
2022-08-09T22:01:03.816Z,26.60
2022-08-09T22:03:48.522Z,26.70
2022-08-09T22:06:25.886Z,26.90
2022-08-09T22:08:54.129Z,26.90
2022-08-09T22:12:09.244Z,26.90
2022-08-09T22:14:10.840Z,27.00
2022-08-09T22:16:40.412Z,26.90
2022-08-09T22:19:23.675Z,26.90
2022-08-09T22:21:54.516Z,27.00
2022-08-09T22:24:25.003Z,26.90
2022-08-09T22:26:52.977Z,26.90
2022-08-09T22:29:26.823Z,26.90
2022-08-09T22:31:59.421Z,26.90
2022-08-09T22:34:27.076Z,26.90
2022-08-09T22:36:55.997Z,26.90
2022-08-09T22:39:55.810Z,27.00
2022-08-09T22:42:21.402Z,26.90
2022-08-09T22:45:00.098Z,27.00
2022-08-09T22:48:10.693Z,27.00
2022-08-09T22:50:29.748Z,27.10
2022-08-09T22:52:58.315Z,27.10
2022-08-09T22:55:39.460Z,27.10
2022-08-09T22:58:30.613Z,27.10
2022-08-09T23:01:02.108Z,27.10
2022-08-09T23:04:02.240Z,27.10
2022-08-09T23:06:34.941Z,27.10
2022-08-09T23:09:05.517Z,27.00
2022-08-09T23:11:32.590Z,27.00
2022-08-09T23:13:59.684Z,27.00
2022-08-09T23:16:26.651Z,27.00
2022-08-09T23:18:53.567Z,27.00
2022-08-09T23:21:24.473Z,27.10
2022-08-09T23:24:06.108Z,27.10
2022-08-09T23:26:38.294Z,27.10
2022-08-09T23:29:06.959Z,27.10
2022-08-09T23:31:34.260Z,27.10
2022-08-09T23:34:02.504Z,27.20
2022-08-09T23:36:31.015Z,27.30
2022-08-09T23:38:58.040Z,27.40
2022-08-09T23:41:28.953Z,27.40
2022-08-09T23:44:00.978Z,27.40
2022-08-09T23:46:31.377Z,27.40
2022-08-09T23:48:59.105Z,27.40
2022-08-09T23:51:26.932Z,27.40
2022-08-09T23:53:55.354Z,27.40
2022-08-09T23:56:52.172Z,27.50
2022-08-09T23:59:17.007Z,27.50
